Time;durP1;ratioP1;P1;durP2;ratioP2;P2;SDS_P1;SDS_P2;PMS_P1;PMS_P2;Temp;Humidity;BMP_temperature;BMP_pressure;BME280_temperature;BME280_humidity;BME280_pressure;Samples;Min_cycle;Max_cycle;Signal;HPM_P1;HPM_P2
2021/09/27 00:00:26;;;;;;;24.55;15.18;;;17.70;99.90;;;;;;5049625;28;20044;-67
2021/09/27 00:03:30;;;;;;;22.48;14.07;;;17.70;99.90;;;;;;5049977;28;20036;-67
2021/09/27 00:06:34;;;;;;;25.42;16.13;;;17.80;99.90;;;;;;5050136;28;20403;-69
2021/09/27 00:09:38;;;;;;;18.83;12.88;;;17.80;99.90;;;;;;5049370;28;20056;-68
2021/09/27 00:12:43;;;;;;;22.95;14.43;;;17.80;99.90;;;;;;5050163;28;20514;-68
2021/09/27 00:15:50;;;;;;;19.73;13.45;;;17.90;99.90;;;;;;5049945;28;20044;-68
2021/09/27 00:18:55;;;;;;;22.15;13.18;;;17.90;99.90;;;;;;5049444;28;20119;-68
2021/09/27 00:21:59;;;;;;;22.30;12.88;;;17.90;99.90;;;;;;5050007;28;20494;-68
2021/09/27 00:25:04;;;;;;;24.08;13.65;;;18.00;99.90;;;;;;5050008;28;20069;-68
2021/09/27 00:28:09;;;;;;;22.00;13.90;;;18.00;99.90;;;;;;5049558;28;20060;-67
2021/09/27 00:31:14;;;;;;;20.30;12.63;;;18.00;99.90;;;;;;5049572;28;20044;-68
2021/09/27 00:34:18;;;;;;;18.98;12.43;;;17.90;99.90;;;;;;5049859;28;20036;-67
2021/09/27 00:37:22;;;;;;;26.98;14.63;;;17.90;99.90;;;;;;5052383;28;20497;-67
2021/09/27 00:40:30;;;;;;;21.67;12.38;;;17.90;99.90;;;;;;5053280;28;20060;-68
2021/09/27 00:43:38;;;;;;;19.35;11.55;;;17.90;99.90;;;;;;5053485;28;20049;-68
2021/09/27 00:46:42;;;;;;;18.88;11.45;;;17.90;99.90;;;;;;5053459;28;20040;-67
2021/09/27 00:49:48;;;;;;;19.20;12.05;;;18.00;99.90;;;;;;5052958;28;20048;-67
2021/09/27 00:52:52;;;;;;;30.42;12.15;;;18.00;99.90;;;;;;5053642;28;20043;-67
2021/09/27 00:55:58;;;;;;;15.60;10.90;;;18.00;99.90;;;;;;5053322;28;20051;-68
2021/09/27 00:59:03;;;;;;;20.83;12.25;;;17.90;99.90;;;;;;5052995;28;20107;-67
2021/09/27 01:02:08;;;;;;;18.95;12.40;;;17.90;99.90;;;;;;5053208;28;20040;-68
2021/09/27 01:05:16;;;;;;;17.55;11.25;;;17.90;99.90;;;;;;5053426;28;20104;-68
2021/09/27 01:08:45;;;;;;;20.58;12.65;;;17.90;99.90;;;;;;5052811;28;20052;-67
2021/09/27 01:12:27;;;;;;;21.42;12.93;;;17.90;99.90;;;;;;5052965;28;20032;-67
2021/09/27 01:15:43;;;;;;;25.17;11.77;;;17.90;99.90;;;;;;5052400;28;20028;-67
2021/09/27 01:18:55;;;;;;;18.85;10.60;;;18.00;99.90;;;;;;5052727;28;20044;-67
2021/09/27 01:22:06;;;;;;;16.20;10.25;;;18.00;99.90;;;;;;5052936;28;20034;-68
2021/09/27 01:25:22;;;;;;;16.33;11.40;;;18.00;99.90;;;;;;5040507;28;20036;-67
2021/09/27 01:28:47;;;;;;;17.05;10.68;;;18.00;99.90;;;;;;5052658;28;20044;-67
2021/09/27 01:32:23;;;;;;;19.60;11.73;;;18.00;99.90;;;;;;5052856;28;20036;-68
2021/09/27 01:35:57;;;;;;;25.15;12.10;;;18.00;99.90;;;;;;5052467;28;20040;-67
2021/09/27 01:39:19;;;;;;;17.30;11.63;;;17.90;99.90;;;;;;5052216;28;20048;-68
2021/09/27 01:42:48;;;;;;;18.50;10.82;;;17.90;99.90;;;;;;5052489;28;20052;-68
2021/09/27 01:46:03;;;;;;;20.13;11.98;;;17.90;99.90;;;;;;5052258;28;20395;-68
2021/09/27 01:49:30;;;;;;;24.15;11.55;;;17.90;99.90;;;;;;5032057;28;20040;-68
2021/09/27 01:52:37;;;;;;;19.50;11.50;;;17.90;99.90;;;;;;5032259;28;20506;-68
2021/09/27 01:55:51;;;;;;;19.60;12.63;;;17.80;99.90;;;;;;5049934;28;20040;-68
2021/09/27 01:59:09;;;;;;;20.50;12.77;;;17.70;99.90;;;;;;5052033;28;20056;-67
2021/09/27 02:02:31;;;;;;;24.70;12.27;;;17.60;99.90;;;;;;5052132;28;20044;-68
2021/09/27 02:05:57;;;;;;;29.20;13.90;;;17.50;99.90;;;;;;5052485;28;20036;-68
2021/09/27 02:09:06;;;;;;;34.33;14.05;;;17.50;99.90;;;;;;5052363;28;20067;-67
2021/09/27 02:12:19;;;;;;;19.83;12.43;;;17.50;99.90;;;;;;5031869;28;20045;-67
2021/09/27 02:15:47;;;;;;;22.73;12.50;;;17.50;99.90;;;;;;5032422;28;20047;-67
2021/09/27 02:19:11;;;;;;;23.15;12.82;;;17.50;99.90;;;;;;5031633;28;20507;-68
2021/09/27 02:22:21;;;;;;;19.80;11.63;;;17.50;99.90;;;;;;5031829;28;20040;-68
2021/09/27 02:25:33;;;;;;;22.30;12.95;;;17.50;99.90;;;;;;5031691;28;20353;-68
2021/09/27 02:28:38;;;;;;;24.25;13.30;;;17.60;99.90;;;;;;5048002;28;20040;-67
2021/09/27 02:31:53;;;;;;;21.20;13.27;;;17.60;99.90;;;;;;5051531;28;20415;-67
2021/09/27 02:35:42;;;;;;;24.30;12.35;;;17.70;99.90;;;;;;5051436;28;20052;-67
2021/09/27 02:39:04;;;;;;;18.08;11.25;;;17.70;99.90;;;;;;4954839;28;20054;-67
2021/09/27 02:42:43;;;;;;;17.83;12.73;;;17.80;99.90;;;;;;5051338;28;20052;-67
2021/09/27 02:45:48;;;;;;;25.65;12.43;;;17.80;99.90;;;;;;5051354;28;20395;-68
2021/09/27 02:49:08;;;;;;;20.23;11.63;;;17.80;99.90;;;;;;5051024;28;20052;-68
2021/09/27 02:52:17;;;;;;;23.13;13.88;;;17.60;99.90;;;;;;5051329;28;20510;-67
2021/09/27 02:55:28;;;;;;;20.33;14.07;;;17.40;99.90;;;;;;5051397;28;20040;-67
2021/09/27 02:59:05;;;;;;;20.80;13.63;;;17.30;99.90;;;;;;5050170;28;20499;-68
2021/09/27 03:02:20;;;;;;;20.27;14.15;;;17.20;99.90;;;;;;5050852;28;20059;-67
2021/09/27 03:05:43;;;;;;;25.73;14.23;;;17.20;99.90;;;;;;5038767;28;20032;-68
2021/09/27 03:08:47;;;;;;;28.58;15.02;;;17.10;99.90;;;;;;5050309;28;20048;-68
2021/09/27 03:12:36;;;;;;;24.08;15.73;;;17.00;99.90;;;;;;5050880;28;20052;-67
2021/09/27 03:15:46;;;;;;;26.23;15.52;;;17.00;99.90;;;;;;4972664;28;20046;-67
2021/09/27 03:19:29;;;;;;;24.27;14.25;;;17.00;99.90;;;;;;5037925;28;20055;-68
2021/09/27 03:22:50;;;;;;;35.97;18.30;;;17.00;99.90;;;;;;5047993;28;20056;-68
2021/09/27 03:26:04;;;;;;;31.40;17.83;;;16.80;99.90;;;;;;5050480;28;20382;-68
2021/09/27 03:29:08;;;;;;;31.30;16.70;;;16.70;99.90;;;;;;5050211;28;20048;-68
2021/09/27 03:32:18;;;;;;;26.75;16.88;;;16.70;99.90;;;;;;5050277;28;20044;-68
2021/09/27 03:35:37;;;;;;;24.38;15.85;;;16.80;99.90;;;;;;5050417;28;20060;-68
2021/09/27 03:39:07;;;;;;;30.20;17.38;;;16.70;99.90;;;;;;5049574;28;20048;-68
2021/09/27 03:42:18;;;;;;;44.50;18.73;;;16.70;99.90;;;;;;5050522;28;20047;-68
2021/09/27 03:45:37;;;;;;;40.22;17.05;;;16.70;99.90;;;;;;5050429;28;20104;-68
2021/09/27 03:48:51;;;;;;;56.83;19.02;;;16.80;99.90;;;;;;5050327;28;20490;-68
2021/09/27 03:52:05;;;;;;;42.00;19.15;;;16.80;99.90;;;;;;5050385;28;20040;-68
2021/09/27 03:55:16;;;;;;;35.38;19.20;;;16.90;99.90;;;;;;5050170;28;20056;-68
2021/09/27 03:58:28;;;;;;;28.67;16.95;;;16.90;99.90;;;;;;5049741;28;20055;-67
2021/09/27 04:01:47;;;;;;;29.40;17.67;;;16.90;99.90;;;;;;5049918;28;20056;-67
2021/09/27 04:04:54;;;;;;;30.05;15.63;;;16.90;99.90;;;;;;5037984;28;20032;-67
2021/09/27 04:08:27;;;;;;;26.52;16.10;;;17.00;99.90;;;;;;5049844;28;20055;-68
2021/09/27 04:11:43;;;;;;;34.42;16.42;;;17.00;99.90;;;;;;5049809;28;20044;-68
2021/09/27 04:15:17;;;;;;;26.15;16.42;;;17.00;99.90;;;;;;5049475;28;20072;-67
2021/09/27 04:18:36;;;;;;;26.90;15.30;;;17.10;99.90;;;;;;5049067;28;20051;-68
2021/09/27 04:22:01;;;;;;;23.98;14.80;;;17.10;99.90;;;;;;5049887;28;20044;-68
2021/09/27 04:25:17;;;;;;;26.92;15.50;;;17.10;99.90;;;;;;5050025;28;20047;-68
2021/09/27 04:28:53;;;;;;;23.20;14.02;;;17.10;99.90;;;;;;5049269;28;20048;-67
2021/09/27 04:32:16;;;;;;;24.35;15.23;;;17.00;99.90;;;;;;5048705;28;20071;-68
2021/09/27 04:35:32;;;;;;;27.80;15.68;;;17.00;99.90;;;;;;5050441;28;20048;-67
2021/09/27 04:38:37;;;;;;;21.23;14.00;;;17.00;99.90;;;;;;5049754;28;20059;-67
2021/09/27 04:42:01;;;;;;;25.70;15.88;;;17.00;99.90;;;;;;5037582;28;20045;-67
2021/09/27 04:45:33;;;;;;;25.40;15.43;;;17.00;99.90;;;;;;5049684;28;20044;-68
2021/09/27 04:49:04;;;;;;;28.17;16.35;;;17.00;99.90;;;;;;5049566;28;20048;-68
2021/09/27 04:52:29;;;;;;;32.75;16.42;;;17.00;99.90;;;;;;5050130;28;20048;-68
2021/09/27 04:55:58;;;;;;;21.42;14.48;;;17.00;99.90;;;;;;5049883;28;20126;-67
2021/09/27 04:59:21;;;;;;;24.00;15.93;;;17.00;99.90;;;;;;5048616;28;20060;-68
2021/09/27 05:02:43;;;;;;;25.60;16.05;;;17.00;99.90;;;;;;5049390;28;20047;-68
2021/09/27 05:05:53;;;;;;;27.85;18.00;;;17.00;99.90;;;;;;5050075;28;20056;-68
2021/09/27 05:09:04;;;;;;;32.35;16.75;;;17.00;99.90;;;;;;5049510;28;20048;-68
2021/09/27 05:12:33;;;;;;;;;;;16.90;99.90;;;;;;5050219;28;20048;-68
2021/09/27 05:16:12;;;;;;;32.92;16.65;;;17.00;99.90;;;;;;5049598;28;19923;-68
2021/09/27 05:19:46;;;;;;;34.92;18.50;;;16.90;99.90;;;;;;5036969;28;20048;-68
2021/09/27 05:23:13;;;;;;;36.28;19.02;;;16.90;99.90;;;;;;5051131;28;20542;-67
2021/09/27 05:26:42;;;;;;;34.47;18.15;;;16.90;99.90;;;;;;5052924;28;20442;-68
2021/09/27 05:30:03;;;;;;;34.25;18.55;;;16.90;99.90;;;;;;5052715;28;20033;-68
2021/09/27 05:33:25;;;;;;;45.10;23.10;;;16.90;99.90;;;;;;5033202;28;20052;-68
2021/09/27 05:37:02;;;;;;;32.53;19.50;;;17.00;99.90;;;;;;5033147;28;20048;-68
2021/09/27 05:40:21;;;;;;;36.53;20.60;;;17.00;99.90;;;;;;5032818;28;20049;-68
2021/09/27 05:43:44;;;;;;;37.72;21.75;;;17.00;99.90;;;;;;5033034;28;20045;-68
2021/09/27 05:47:07;;;;;;;33.60;18.25;;;17.10;99.90;;;;;;5032724;28;20048;-67
2021/09/27 05:50:19;;;;;;;31.48;19.40;;;17.30;99.90;;;;;;5032289;28;20052;-67
2021/09/27 05:53:31;;;;;;;29.05;15.80;;;17.40;99.90;;;;;;5032836;28;20045;-67
2021/09/27 05:57:00;;;;;;;27.42;16.17;;;17.70;99.90;;;;;;5032553;28;20053;-67
2021/09/27 06:00:22;;;;;;;24.33;15.77;;;17.90;99.90;;;;;;5032137;28;20144;-67
2021/09/27 06:04:13;;;;;;;27.40;15.73;;;18.30;99.90;;;;;;5046392;28;20037;-68
2021/09/27 06:07:29;;;;;;;30.70;13.82;;;18.60;99.90;;;;;;5024939;28;20045;-68
2021/09/27 06:10:41;;;;;;;29.10;15.90;;;18.90;99.90;;;;;;5045627;28;20395;-68
2021/09/27 06:13:49;;;;;;;21.73;14.63;;;19.70;99.90;;;;;;5051448;28;20036;-68
2021/09/27 06:17:08;;;;;;;21.45;12.38;;;20.90;99.90;;;;;;5051043;28;20394;-68
2021/09/27 06:20:26;;;;;;;19.65;10.88;;;22.20;99.90;;;;;;5050889;28;20044;-68
2021/09/27 06:24:17;;;;;;;19.98;11.20;;;23.20;99.90;;;;;;5051641;28;20391;-68
2021/09/27 06:27:39;;;;;;;16.70;9.82;;;23.20;99.90;;;;;;5037549;28;20048;-68
2021/09/27 06:31:00;;;;;;;16.95;10.70;;;22.70;99.90;;;;;;5047204;28;20052;-68
2021/09/27 06:34:09;;;;;;;18.50;11.55;;;22.40;99.90;;;;;;5050695;28;20103;-68
2021/09/27 06:37:18;;;;;;;17.60;10.38;;;22.60;99.90;;;;;;5046218;28;20071;-68
2021/09/27 06:40:22;;;;;;;16.95;10.20;;;23.00;99.90;;;;;;5050174;28;20067;-68
2021/09/27 06:43:27;;;;;;;23.75;11.30;;;23.70;99.90;;;;;;5051064;28;20040;-68
2021/09/27 06:46:32;;;;;;;17.13;10.25;;;24.20;99.90;;;;;;5047834;28;20199;-68
2021/09/27 06:49:37;;;;;;;14.75;10.30;;;23.50;99.90;;;;;;5038907;28;20036;-68
2021/09/27 06:52:41;;;;;;;13.10;9.07;;;21.90;99.90;;;;;;5045145;28;20044;-68
2021/09/27 06:55:48;;;;;;;19.63;10.35;;;21.40;99.90;;;;;;5044584;28;20043;-67
2021/09/27 06:58:52;;;;;;;23.95;11.02;;;21.80;99.90;;;;;;5048992;28;20609;-67
2021/09/27 07:01:57;;;;;;;22.08;9.68;;;21.70;99.90;;;;;;5049459;28;20400;-68
2021/09/27 07:05:01;;;;;;;17.88;9.98;;;22.30;99.90;;;;;;5037653;28;20040;-68
2021/09/27 07:08:05;;;;;;;16.30;10.98;;;22.80;99.90;;;;;;5050139;28;20060;-68
2021/09/27 07:11:09;;;;;;;16.40;10.52;;;22.20;99.90;;;;;;5050304;28;20052;-67
2021/09/27 07:14:13;;;;;;;14.32;9.55;;;22.40;99.90;;;;;;5045419;28;20052;-68
2021/09/27 07:17:17;;;;;;;21.05;10.90;;;22.60;99.90;;;;;;5047161;28;20040;-67
2021/09/27 07:20:27;;;;;;;17.40;9.68;;;22.70;99.90;;;;;;5049350;28;20052;-67
2021/09/27 07:23:38;;;;;;;16.27;9.15;;;22.90;99.90;;;;;;5050039;28;20992;-68
2021/09/27 07:26:42;;;;;;;18.60;9.68;;;23.10;99.90;;;;;;5049014;28;20426;-68
2021/09/27 07:29:46;;;;;;;19.45;9.68;;;23.30;99.90;;;;;;5048743;28;20040;-67
2021/09/27 07:32:51;;;;;;;11.90;8.70;;;23.50;99.90;;;;;;5048574;28;20048;-67
2021/09/27 07:35:56;;;;;;;16.67;9.43;;;23.50;99.90;;;;;;5049358;28;20056;-67
2021/09/27 07:39:01;;;;;;;23.40;10.05;;;23.40;99.90;;;;;;5046737;28;20040;-67
2021/09/27 07:42:06;;;;;;;19.85;8.93;;;23.60;99.90;;;;;;5036098;28;20063;-68
2021/09/27 07:45:14;;;;;;;16.73;8.23;;;23.80;99.90;;;;;;5039869;28;20044;-68
2021/09/27 07:48:17;;;;;;;16.55;7.03;;;25.00;99.90;;;;;;5049781;28;20048;-67
2021/09/27 07:51:23;;;;;;;12.48;7.13;;;26.70;99.90;;;;;;5043775;28;20044;-68
2021/09/27 07:54:27;;;;;;;16.58;8.10;;;28.10;99.90;;;;;;5049730;28;20044;-67
2021/09/27 07:57:33;;;;;;;15.10;7.88;;;27.60;99.90;;;;;;5044260;28;20052;-67
2021/09/27 08:00:37;;;;;;;13.68;7.00;;;28.30;99.90;;;;;;5049059;28;20044;-67
2021/09/27 08:03:42;;;;;;;19.13;8.02;;;29.70;99.90;;;;;;5036957;28;20036;-67
2021/09/27 08:06:47;;;;;;;10.95;6.93;;;29.10;99.90;;;;;;5022469;28;20043;-67
2021/09/27 08:09:51;;;;;;;17.08;8.18;;;25.70;99.90;;;;;;5046330;28;20052;-67
2021/09/27 08:12:56;;;;;;;14.77;9.02;;;25.00;99.90;;;;;;5044847;28;20048;-67
2021/09/27 08:16:00;;;;;;;14.68;9.00;;;25.80;99.90;;;;;;5047357;28;20039;-67
2021/09/27 08:19:05;;;;;;;15.40;8.10;;;26.00;99.90;;;;;;5048309;28;20044;-68
2021/09/27 08:22:09;;;;;;;21.25;8.65;;;26.00;99.90;;;;;;5047828;28;20491;-67
2021/09/27 08:25:14;;;;;;;15.90;8.05;;;26.50;99.90;;;;;;5049304;28;20052;-68
2021/09/27 08:28:21;;;;;;;12.45;7.38;;;26.30;99.90;;;;;;5047287;28;20119;-68
2021/09/27 08:31:25;;;;;;;12.32;6.40;;;27.50;99.90;;;;;;5045991;28;20044;-67
2021/09/27 08:34:30;;;;;;;13.35;6.38;;;28.80;99.90;;;;;;5036423;28;20079;-68
2021/09/27 08:37:34;;;;;;;13.80;7.20;;;30.70;99.90;;;;;;5049340;28;20056;-68
2021/09/27 08:40:59;;;;;;;11.38;5.68;;;31.40;99.90;;;;;;5049594;28;20052;-69
2021/09/27 08:44:32;;;;;;;12.45;5.88;;;33.00;99.80;;;;;;5049469;28;20549;-68
2021/09/27 08:47:51;;;;;;;10.90;5.90;;;35.00;95.70;;;;;;5043089;28;20040;-68
2021/09/27 08:50:56;;;;;;;13.63;6.05;;;35.20;94.70;;;;;;5049227;28;20039;-68
2021/09/27 08:54:04;;;;;;;10.52;5.50;;;35.90;94.60;;;;;;5049197;28;20032;-69
2021/09/27 08:57:36;;;;;;;15.68;5.97;;;37.50;93.60;;;;;;5047660;28;20044;-66
2021/09/27 09:01:11;;;;;;;13.40;5.82;;;39.00;90.00;;;;;;5052794;28;20044;-66
2021/09/27 09:05:05;;;;;;;9.93;5.53;;;39.30;88.30;;;;;;5052160;28;20040;-66
2021/09/27 09:08:34;;;;;;;15.70;7.68;;;38.40;87.50;;;;;;5052108;28;20044;-66
2021/09/27 09:11:38;;;;;;;24.30;7.00;;;39.50;84.50;;;;;;5051461;28;20048;-66
2021/09/27 09:14:49;;;;;;;15.38;7.00;;;40.60;82.80;;;;;;5052396;28;20052;-65
2021/09/27 09:17:56;;;;;;;19.92;6.20;;;36.00;84.90;;;;;;5051824;28;20044;-66
2021/09/27 09:21:04;;;;;;;17.30;7.13;;;36.30;87.10;;;;;;5053530;28;20056;-67
2021/09/27 09:24:32;;;;;;;18.95;6.10;;;35.50;88.60;;;;;;5052921;28;20052;-67
2021/09/27 09:27:37;;;;;;;10.93;5.10;;;34.20;90.50;;;;;;5051956;28;20052;-68
2021/09/27 09:31:04;;;;;;;15.23;5.78;;;37.10;90.10;;;;;;5052000;28;20394;-68
2021/09/27 09:34:17;;;;;;;11.45;5.38;;;37.60;87.60;;;;;;5052461;28;20056;-68
2021/09/27 09:37:33;;;;;;;16.33;6.30;;;37.20;88.50;;;;;;5052263;28;20052;-68
2021/09/27 09:40:41;;;;;;;12.73;6.10;;;39.60;85.10;;;;;;5050113;28;20044;-67
2021/09/27 09:43:48;;;;;;;14.02;6.05;;;38.90;83.10;;;;;;5051891;28;20391;-68
2021/09/27 09:47:11;;;;;;;12.45;6.22;;;38.80;83.10;;;;;;5043443;28;20036;-68
2021/09/27 09:50:36;;;;;;;19.00;6.43;;;39.90;82.10;;;;;;5049078;28;20056;-68
2021/09/27 09:53:40;;;;;;;15.38;6.68;;;40.90;80.70;;;;;;5049460;28;20036;-66
2021/09/27 09:57:03;;;;;;;17.23;6.90;;;39.80;80.00;;;;;;5050324;28;20032;-68
2021/09/27 10:00:17;;;;;;;25.13;7.45;;;40.60;79.30;;;;;;5050880;28;20501;-68
2021/09/27 10:03:34;;;;;;;12.88;6.25;;;38.40;81.40;;;;;;5052870;28;20036;-68
2021/09/27 10:06:44;;;;;;;13.00;6.80;;;40.80;80.80;;;;;;5052486;28;20378;-68
2021/09/27 10:09:51;;;;;;;16.77;6.68;;;39.50;80.30;;;;;;5051286;28;20044;-68
2021/09/27 10:12:58;;;;;;;19.33;6.95;;;40.80;79.90;;;;;;5051663;28;20044;-68
2021/09/27 10:16:13;;;;;;;19.05;7.20;;;38.90;81.30;;;;;;5052165;28;20044;-68
2021/09/27 10:19:17;;;;;;;19.67;7.65;;;39.70;82.00;;;;;;5050437;28;20044;-68
2021/09/27 10:22:25;;;;;;;18.45;6.68;;;37.70;79.90;;;;;;5031946;28;20387;-68
2021/09/27 10:25:41;;;;;;;14.98;6.55;;;38.20;81.10;;;;;;5049674;28;20043;-67
2021/09/27 10:28:52;;;;;;;19.52;8.18;;;38.50;79.90;;;;;;5051332;28;20063;-67
2021/09/27 10:31:59;;;;;;;13.75;7.05;;;37.70;80.30;;;;;;5051813;28;20048;-67
2021/09/27 10:35:29;;;;;;;14.55;6.57;;;39.00;78.80;;;;;;5050934;28;20039;-68
2021/09/27 10:38:40;;;;;;;20.08;7.22;;;41.70;75.00;;;;;;5018388;28;20522;-67
2021/09/27 10:42:02;;;;;;;20.48;8.18;;;37.60;79.60;;;;;;5038521;28;20396;-67
2021/09/27 10:45:09;;;;;;;14.13;7.72;;;38.10;77.60;;;;;;5050487;28;20056;-67
2021/09/27 10:48:15;;;;;;;19.40;7.38;;;38.60;77.60;;;;;;5039020;28;20438;-68
2021/09/27 10:51:26;;;;;;;17.67;7.30;;;40.60;75.50;;;;;;5051357;28;20280;-68
2021/09/27 10:54:44;;;;;;;17.15;8.05;;;39.50;76.20;;;;;;5051392;28;20398;-67
2021/09/27 10:58:11;;;;;;;16.75;7.60;;;40.60;76.40;;;;;;5046936;28;20048;-67
2021/09/27 11:01:33;;;;;;;13.40;6.85;;;42.60;75.30;;;;;;5046526;28;20048;-68
2021/09/27 11:04:45;;;;;;;13.15;6.68;;;44.80;71.50;;;;;;5050122;28;20044;-67
2021/09/27 11:07:55;;;;;;;22.77;7.75;;;45.40;70.80;;;;;;5050784;28;20055;-67
2021/09/27 11:10:59;;;;;;;13.30;6.90;;;43.00;71.10;;;;;;5050318;28;20040;-67
2021/09/27 11:14:21;;;;;;;17.42;7.82;;;39.60;75.40;;;;;;5049001;28;20048;-67
2021/09/27 11:17:44;;;;;;;18.15;7.07;;;36.70;80.30;;;;;;5050454;28;20048;-67
2021/09/27 11:20:48;;;;;;;19.10;7.40;;;35.10;84.10;;;;;;5048720;28;20585;-67
2021/09/27 11:24:44;;;;;;;16.60;7.78;;;34.40;85.30;;;;;;5050252;28;20048;-67
2021/09/27 11:28:07;;;;;;;20.27;7.93;;;34.10;86.90;;;;;;5050146;28;20386;-67
2021/09/27 11:31:26;;;;;;;22.25;8.60;;;35.10;86.50;;;;;;5050261;28;20052;-68
2021/09/27 11:34:43;;;;;;;20.15;11.65;;;38.30;80.70;;;;;;5037963;28;20048;-67
2021/09/27 11:37:47;;;;;;;19.42;11.40;;;39.90;74.90;;;;;;5050225;28;20043;-68
2021/09/27 11:40:54;;;;;;;20.02;10.82;;;41.50;72.80;;;;;;5050364;28;20044;-67
2021/09/27 11:44:14;;;;;;;17.30;12.15;;;43.20;70.50;;;;;;5048334;28;20044;-67
2021/09/27 11:47:59;;;;;;;18.33;12.73;;;43.50;68.50;;;;;;5048620;28;20039;-67
2021/09/27 11:51:06;;;;;;;15.45;10.35;;;44.30;68.40;;;;;;4997650;28;20403;-67
2021/09/27 11:54:54;;;;;;;15.75;11.15;;;43.90;67.90;;;;;;5050111;28;20040;-68
2021/09/27 11:58:27;;;;;;;18.95;12.13;;;44.50;67.30;;;;;;5049596;28;20055;-68
2021/09/27 12:02:13;;;;;;;18.17;12.00;;;45.00;66.10;;;;;;5049390;28;20044;-68
2021/09/27 12:05:31;;;;;;;20.05;12.05;;;45.00;65.50;;;;;;5046760;28;20044;-67
2021/09/27 12:08:44;;;;;;;27.83;12.05;;;44.70;65.60;;;;;;5046553;28;20028;-67
2021/09/27 12:11:52;;;;;;;17.83;11.43;;;45.00;64.90;;;;;;5047924;28;20051;-67
2021/09/27 12:15:00;;;;;;;16.27;12.07;;;43.50;63.60;;;;;;5035383;28;20036;-67
2021/09/27 12:18:05;;;;;;;16.38;11.73;;;42.80;64.10;;;;;;5041590;28;20075;-67
2021/09/27 12:21:23;;;;;;;19.25;12.57;;;41.90;64.70;;;;;;5049558;28;20395;-67
2021/09/27 12:24:34;;;;;;;20.10;12.95;;;40.90;66.60;;;;;;5046217;28;20040;-67
2021/09/27 12:28:04;;;;;;;20.30;13.38;;;40.70;66.00;;;;;;5046043;28;20507;-68
2021/09/27 12:31:10;;;;;;;17.10;13.15;;;41.40;66.50;;;;;;5045533;28;20498;-67
2021/09/27 12:34:18;;;;;;;16.55;12.32;;;42.60;65.90;;;;;;5046401;28;20502;-67
2021/09/27 12:37:24;;;;;;;22.25;13.15;;;42.60;64.50;;;;;;5041473;28;20506;-67
2021/09/27 12:40:49;;;;;;;17.63;12.50;;;42.80;64.80;;;;;;5041788;28;20040;-67
2021/09/27 12:44:06;;;;;;;16.10;12.10;;;42.90;63.80;;;;;;5032314;28;20032;-66
2021/09/27 12:47:10;;;;;;;18.00;12.93;;;41.00;63.90;;;;;;5043063;28;20052;-67
2021/09/27 12:50:20;;;;;;;17.92;13.20;;;40.90;65.20;;;;;;5029605;28;20036;-67
2021/09/27 12:53:48;;;;;;;17.55;13.43;;;41.30;65.30;;;;;;5044421;28;20028;-66
2021/09/27 12:56:54;;;;;;;17.00;13.10;;;39.80;65.80;;;;;;5052819;28;20051;-66
2021/09/27 12:59:59;;;;;;;19.33;13.77;;;39.90;65.80;;;;;;5022676;28;20043;-67
2021/09/27 13:03:08;;;;;;;18.02;12.75;;;40.70;64.50;;;;;;5052166;28;20052;-66
2021/09/27 13:06:27;;;;;;;18.23;13.90;;;40.40;64.30;;;;;;5039683;28;20052;-66
2021/09/27 13:09:38;;;;;;;17.77;15.00;;;39.10;64.30;;;;;;5038847;28;20495;-67
2021/09/27 13:12:59;;;;;;;18.30;14.23;;;38.60;65.10;;;;;;5051147;28;20486;-66
2021/09/27 13:16:16;;;;;;;19.08;14.23;;;38.10;65.30;;;;;;5053459;28;20044;-67
2021/09/27 13:19:43;;;;;;;22.98;14.48;;;37.80;67.40;;;;;;5052447;28;20048;-67
2021/09/27 13:22:48;;;;;;;19.60;14.50;;;38.20;66.50;;;;;;5044580;28;20040;-67
2021/09/27 13:25:56;;;;;;;21.63;14.52;;;39.00;66.40;;;;;;5052414;28;20059;-67
2021/09/27 13:29:21;;;;;;;22.60;13.68;;;39.30;65.00;;;;;;5051553;28;20052;-67
2021/09/27 13:32:34;;;;;;;18.52;14.95;;;39.70;64.90;;;;;;5050801;28;20040;-67
2021/09/27 13:35:54;;;;;;;23.50;14.00;;;40.30;63.70;;;;;;5046181;28;20056;-67
2021/09/27 13:39:16;;;;;;;19.83;14.55;;;39.90;64.00;;;;;;5050211;28;20415;-67
2021/09/27 13:43:14;;;;;;;19.48;15.32;;;37.90;65.80;;;;;;5048370;28;20395;-66
2021/09/27 13:46:27;;;;;;;19.45;14.73;;;36.10;65.80;;;;;;4994604;28;20052;-66
2021/09/27 13:49:32;;;;;;;20.85;15.57;;;35.90;67.90;;;;;;5051443;28;20040;-65
2021/09/27 13:52:42;;;;;;;19.58;15.27;;;36.00;68.40;;;;;;5041971;28;20044;-66
2021/09/27 13:55:47;;;;;;;19.42;15.93;;;36.70;67.80;;;;;;5037967;28;20379;-66
2021/09/27 13:58:52;;;;;;;19.02;15.45;;;36.50;68.20;;;;;;5050910;28;20048;-66
2021/09/27 14:01:56;;;;;;;18.40;15.25;;;36.50;67.90;;;;;;5051167;28;20040;-66
2021/09/27 14:04:59;;;;;;;19.67;14.90;;;37.10;67.80;;;;;;5047487;28;20044;-66
2021/09/27 14:08:06;;;;;;;21.55;16.45;;;37.20;67.30;;;;;;5050948;28;20072;-66
2021/09/27 14:11:11;;;;;;;22.67;16.63;;;36.80;67.70;;;;;;5037932;28;20044;-66
2021/09/27 14:14:15;;;;;;;27.25;16.27;;;36.50;68.70;;;;;;5050266;28;20371;-66
2021/09/27 14:17:21;;;;;;;19.98;16.42;;;36.30;68.60;;;;;;5050364;28;20040;-66
2021/09/27 14:20:26;;;;;;;22.00;16.48;;;35.10;70.00;;;;;;5051689;28;20048;-65
2021/09/27 14:23:31;;;;;;;21.15;16.67;;;34.20;72.40;;;;;;5050033;28;20048;-65
2021/09/27 14:26:36;;;;;;;27.15;18.20;;;33.60;73.10;;;;;;5047650;28;20044;-66
2021/09/27 14:29:41;;;;;;;22.77;17.70;;;33.00;74.00;;;;;;5050995;28;20047;-65
2021/09/27 14:32:45;;;;;;;23.35;17.92;;;32.70;74.40;;;;;;5050521;28;20036;-65
2021/09/27 14:35:50;;;;;;;24.75;18.02;;;32.60;74.90;;;;;;5048259;28;20505;-65
2021/09/27 14:38:54;;;;;;;22.00;17.10;;;32.60;76.10;;;;;;5050011;28;20048;-66
2021/09/27 14:41:58;;;;;;;24.55;18.33;;;32.50;75.80;;;;;;5050460;28;20039;-65
2021/09/27 14:45:07;;;;;;;23.55;17.83;;;32.30;76.40;;;;;;5035908;28;20044;-66
2021/09/27 14:48:12;;;;;;;22.50;18.05;;;32.30;77.20;;;;;;5037335;28;20391;-66
2021/09/27 14:51:19;;;;;;;26.30;19.08;;;32.20;77.50;;;;;;5050880;28;20044;-66
2021/09/27 14:54:23;;;;;;;23.77;17.70;;;32.20;77.40;;;;;;5030549;28;20502;-66
2021/09/27 14:57:27;;;;;;;26.02;17.73;;;32.10;77.70;;;;;;5031052;28;20388;-65
2021/09/27 15:00:32;;;;;;;22.00;18.00;;;32.00;78.70;;;;;;5044259;28;20048;-65
2021/09/27 15:03:37;;;;;;;24.88;18.60;;;31.80;78.90;;;;;;5050685;28;20502;-65
2021/09/27 15:06:41;;;;;;;25.50;18.50;;;31.40;80.00;;;;;;5050194;28;20036;-65
2021/09/27 15:09:46;;;;;;;27.38;18.67;;;31.20;79.80;;;;;;5048832;28;20055;-65
2021/09/27 15:12:50;;;;;;;26.38;19.17;;;31.20;79.90;;;;;;5034164;28;20048;-65
2021/09/27 15:15:54;;;;;;;25.40;18.92;;;31.20;81.00;;;;;;5050934;28;20408;-65
2021/09/27 15:18:59;;;;;;;28.33;20.13;;;30.80;81.30;;;;;;5050194;28;20048;-65
2021/09/27 15:22:03;;;;;;;24.63;19.77;;;30.60;82.20;;;;;;5050747;28;20044;-64
2021/09/27 15:25:12;;;;;;;26.58;19.52;;;30.20;82.90;;;;;;5050572;28;20038;-65
2021/09/27 15:28:16;;;;;;;29.65;19.98;;;29.90;84.00;;;;;;5050540;28;20040;-67
2021/09/27 15:31:23;;;;;;;30.10;20.60;;;29.60;84.60;;;;;;5050752;28;20044;-67
2021/09/27 15:34:30;;;;;;;33.45;21.70;;;29.40;85.40;;;;;;5050686;28;20498;-66
2021/09/27 15:37:34;;;;;;;30.88;21.20;;;29.40;86.00;;;;;;5050122;28;20048;-66
2021/09/27 15:40:39;;;;;;;29.00;20.13;;;29.40;85.90;;;;;;5050729;28;20052;-67
2021/09/27 15:43:44;;;;;;;24.30;21.25;;;29.30;86.60;;;;;;5050682;28;20063;-66
2021/09/27 15:46:49;;;;;;;25.95;19.75;;;29.30;86.70;;;;;;5051160;28;20040;-66
2021/09/27 15:49:53;;;;;;;33.33;20.05;;;29.00;87.30;;;;;;5050259;28;20478;-66
2021/09/27 15:52:58;;;;;;;24.98;20.60;;;28.80;87.90;;;;;;5038527;28;20040;-66
2021/09/27 15:56:03;;;;;;;27.90;21.52;;;28.70;88.30;;;;;;5050231;28;20250;-66
2021/09/27 15:59:08;;;;;;;25.80;20.52;;;28.50;88.60;;;;;;5049951;28;20056;-66
2021/09/27 16:02:12;;;;;;;33.92;22.92;;;28.30;89.20;;;;;;5050298;28;20057;-67
2021/09/27 16:05:17;;;;;;;30.42;22.40;;;28.10;89.90;;;;;;5050084;28;20059;-66
2021/09/27 16:08:20;;;;;;;34.90;25.00;;;27.70;90.70;;;;;;5049832;28;20517;-66
2021/09/27 16:11:25;;;;;;;32.40;22.73;;;27.50;90.90;;;;;;5050212;28;20400;-67
2021/09/27 16:14:29;;;;;;;34.72;23.17;;;27.20;91.00;;;;;;5050089;28;20052;-67
2021/09/27 16:17:34;;;;;;;37.88;25.02;;;27.10;91.30;;;;;;5029688;28;20249;-66
2021/09/27 16:20:40;;;;;;;31.15;24.77;;;27.00;91.60;;;;;;5030082;28;20064;-66
2021/09/27 16:23:45;;;;;;;37.33;25.73;;;26.80;91.80;;;;;;5029883;28;20503;-66
2021/09/27 16:26:49;;;;;;;43.38;26.67;;;26.50;92.20;;;;;;5030576;28;20048;-66